Antelope, KS

7:00 AM CDT on August 25, 2016 (GMT -0500)
Marion | | Change Station

Elev 1371 ft 38.35 °N, 97.01 °W | Updated 5 minutes ago

Mostly Cloudy
Mostly Cloudy
67.1 °F
Feels Like 67.1 °F
N
0.0
Wind Variable Wind from SW

Today
High -- | Low -- °F
--% Chance of Precip.
Yesterday
High -- | Low -- °F
Precip. -- in
Pressure 30.00 in
Visibility 10.0 miles
Clouds Few 8000 ft
Mostly Cloudy 11000 ft
Dew Point 63 °F
Humidity 88%
Rainfall 0.27 in
Snow Depth Not available.
6:51 AM 8:07 PM
Last Quarter, 46% visible
METAR KEWK 251156Z AUTO 01004KT 10SM FEW080 BKN110 19/19 A3004 RMK AO2 WSHFT 1043 TSE11RAE46 SLP159 P0004 60036 70084 T01940189 10211 20194 50004
Pressure 30.00 in
Visibility 10.0 miles
Clouds Few 8000 ft
Mostly Cloudy 11000 ft
Dew Point 63 °F
Humidity 88%
Rainfall 0.27 in
Snow Depth Not available.
6:51 AM 8:07 PM
Last Quarter, 46% visible
METAR KEWK 251156Z AUTO 01004KT 10SM FEW080 BKN110 19/19 A3004 RMK AO2 WSHFT 1043 TSE11RAE46 SLP159 P0004 60036 70084 T01940189 10211 20194 50004

10-Day Weather Forecast

Almanac

Astronomy

Aug. 25, 2016 Rise Set
Actual Time
Civil Twilight
Nautical Twilight
Astronomical Twilight
Moon
Length of Visible Light
Length of Day
Tomorrow will be .
, % of the Moon is Illuminated

Today's Extremes

State Highs State Lows

Community

WunderPhotos

Upload Photos

1,934,821 photos uploaded!

WunderBlog® & News

Nearby

Air Quality

  Air Quality AQ Index Pollutant
Not available.

Snow Depth

Station Depth Elevation

Earthquake Activity

City Distance Mag. Time & Date
Minimum magnitude displayed is 2.5.

Coastal Water Temperatures

Place Temperature

Stations

Nearby Weather Stations

Station Location Temp. Windchill Dew Point Humidity Wind Precip. Elev Updated Type
                   

Watches & Warnings

There are currently no watches in effect.